Upper Marlboro, MD (20774)

7:51 PM EST on February 10, 2016 (GMT -0500)
Brock Hall | | Change Station
CLOSE
Current Station
Personal Weather Station
Location: Upper Marlboro, MD
Elevation: 154 ft
Nearby Weather Stations

Elev 154 ft 38.84 °N, 76.75 °W | Updated 1 second ago

Overcast
Overcast
27.3 °F
Feels Like 19 °F
N
8.9
Wind Variable Wind from SW

Today
High -- | Low -- °F
--% Chance of Precip.
Yesterday
High -- | Low -- °F
Precip. -- in
Pressure 29.90 in
Visibility 10.0 miles
Clouds Mostly Cloudy 4600 ft
Overcast 6000 ft
Windchill 19 °F
Dew Point 12 °F
Humidity 51%
Rainfall 0.00 in
Snow Depth Not available.
7:04 AM 5:38 PM
Waxing Crescent, 8% visible
METAR KADW 102358Z AUTO 30017KT 10SM BKN046 OVC060 M02/M12 A2987 RMK AO2 PK WND 30027/20 SLP125 T10211123 10027 21021 52030
Pressure 29.90 in
Visibility 10.0 miles
Clouds Mostly Cloudy 4600 ft
Overcast 6000 ft
Windchill 19 °F
Dew Point 12 °F
Humidity 51%
Rainfall 0.00 in
Snow Depth Not available.
7:04 AM 5:38 PM
Waxing Crescent, 8% visible
METAR KADW 102358Z AUTO 30017KT 10SM BKN046 OVC060 M02/M12 A2987 RMK AO2 PK WND 30027/20 SLP125 T10211123 10027 21021 52030

10-Day Weather Forecast

Almanac

Astronomy

Feb. 10, 2016 Rise Set
Actual Time
Civil Twilight
Nautical Twilight
Astronomical Twilight
Moon
Length of Visible Light
Length of Day
Tomorrow will be .
, % of the Moon is Illuminated

Today's Extremes

State Highs State Lows

Community

WunderPhotos

Upload Photos

1,891,948 photos uploaded!

WunderBlog® & News

Nearby

Air Quality

  Air Quality AQ Index Pollutant
Not available.

Snow Depth

Station Depth Elevation

Earthquake Activity

City Distance Mag. Time & Date
Minimum magnitude displayed is 2.5.

Coastal Water Temperatures

Place Temperature

Stations

Nearby Weather Stations

Station Location Temp. Windchill Dew Point Humidity Wind Precip. Elev Updated Type
                   

Watches & Warnings

There are currently no watches in effect.